This is the latest recevied weather packets stored in our database for station/object K7TSD. If no packets are shown the sender has not sent any weather packets the latest 1 day(s).
| Time | Temp. | Humidity | Pressure | Rain* | Wind** | Luminosity | Snow |
|---|---|---|---|---|---|---|---|
| 1778059215 | -4.44° C | 74% | 1015.6 hPa | 0 mm | - | 0 W/m² | - |
| 1778058914 | -5° C | 75% | 1015.6 hPa | 0 mm | - | 0 W/m² | - |
| 1778056488 | -3.89° C | 74% | 1015.6 hPa | 0 mm | - | 0 W/m² | - |
| 1778056185 | -3.89° C | 74% | 1015.4 hPa | 0 mm | - | 0 W/m² | - |
| 1778055882 | -3.89° C | 74% | 1015.6 hPa | 0 mm | - | 0 W/m² | - |
| 1778054670 | -4.44° C | 76% | 1015.8 hPa | 0 mm | - | 0 W/m² | - |
| 1778054368 | -4.44° C | 76% | 1015.6 hPa | 0 mm | - | 0 W/m² | - |
| 1778054065 | -4.44° C | 76% | 1015.6 hPa | 0 mm | - | 0 W/m² | - |
| 1778053762 | -5° C | 77% | 1015.8 hPa | 0 mm | - | 0 W/m² | - |
| 1778053459 | -5° C | 76% | 1015.7 hPa | 0 mm | - | 0 W/m² | - |
| 1778053156 | -3.89° C | 74% | 1015.8 hPa | 0 mm | - | 0 W/m² | - |
| 1778052854 | -4.44° C | 76% | 1015.8 hPa | 0 mm | - | 0 W/m² | - |
| 1778051946 | -4.44° C | 75% | 1015.7 hPa | 0 mm | - | 0 W/m² | - |
| 1778050432 | -6.11° C | 80% | 1015.8 hPa | 0 mm | - | 0 W/m² | - |
| 1778050129 | -6.11° C | 80% | 1015.8 hPa | 0 mm | - | 0 W/m² | - |
| 1778049824 | -4.44° C | 76% | 1015.9 hPa | 0 mm | - | 0 W/m² | - |
| 1778049219 | -3.33° C | 73% | 1016 hPa | 0 mm | - | 0 W/m² | - |
| 1778046797 | -3.33° C | 74% | 1015.8 hPa | 0 mm | - | 0 W/m² | - |
| 1778046494 | -3.33° C | 74% | 1015.9 hPa | 0 mm | - | 0 W/m² | - |
| 1778045887 | -3.33° C | 73% | 1015.8 hPa | 0 mm | - | 0 W/m² | - |
| 1778044679 | -2.78° C | 72% | 1015.8 hPa | 0 mm | - | 0 W/m² | - |
| 1778044375 | -2.78° C | 73% | 1016 hPa | 0 mm | - | 0 W/m² | - |
| 1778044073 | -2.78° C | 73% | 1015.8 hPa | 0 mm | - | 0 W/m² | - |
| 1778043770 | -2.22° C | 71% | 1016 hPa | 0 mm | - | 0 W/m² | - |
| 1778043466 | -2.22° C | 70% | 1016.1 hPa | 0 mm | - | 0 W/m² | - |
* Rain latest hour (hover to see other rain measurements)
** Current wind speed in m/s (hover to see current wind gust speed)